sensor_id;sensor_type;location;lat;lon;timestamp;P1;durP1;ratioP1;P2;durP2;ratioP2
19776;SDS011;10047;42.490;26.012;2024-03-08T00:01:55;53.15;;;33.20;;
19776;SDS011;10047;42.490;26.012;2024-03-08T00:04:20;60.30;;;33.95;;
19776;SDS011;10047;42.490;26.012;2024-03-08T00:06:46;61.42;;;34.15;;
19776;SDS011;10047;42.490;26.012;2024-03-08T00:09:12;53.08;;;32.20;;
19776;SDS011;10047;42.490;26.012;2024-03-08T00:11:39;58.58;;;34.13;;
19776;SDS011;10047;42.490;26.012;2024-03-08T00:14:04;59.03;;;34.30;;
19776;SDS011;10047;42.490;26.012;2024-03-08T00:16:32;58.85;;;33.38;;
19776;SDS011;10047;42.490;26.012;2024-03-08T00:18:58;57.45;;;33.05;;
19776;SDS011;10047;42.490;26.012;2024-03-08T00:21:23;55.22;;;33.25;;
19776;SDS011;10047;42.490;26.012;2024-03-08T00:23:49;53.60;;;32.05;;
19776;SDS011;10047;42.490;26.012;2024-03-08T00:26:14;52.65;;;32.03;;
19776;SDS011;10047;42.490;26.012;2024-03-08T00:28:40;55.20;;;33.30;;
19776;SDS011;10047;42.490;26.012;2024-03-08T00:31:05;56.58;;;34.22;;
19776;SDS011;10047;42.490;26.012;2024-03-08T00:33:32;52.67;;;33.78;;
19776;SDS011;10047;42.490;26.012;2024-03-08T00:35:57;54.55;;;33.80;;
19776;SDS011;10047;42.490;26.012;2024-03-08T00:38:23;54.75;;;33.10;;
19776;SDS011;10047;42.490;26.012;2024-03-08T00:40:48;57.70;;;33.53;;
19776;SDS011;10047;42.490;26.012;2024-03-08T00:43:14;55.33;;;32.85;;
19776;SDS011;10047;42.490;26.012;2024-03-08T00:45:40;54.15;;;32.97;;
19776;SDS011;10047;42.490;26.012;2024-03-08T00:48:07;54.15;;;33.83;;
19776;SDS011;10047;42.490;26.012;2024-03-08T00:50:34;54.88;;;33.03;;
19776;SDS011;10047;42.490;26.012;2024-03-08T00:52:59;57.17;;;33.80;;
19776;SDS011;10047;42.490;26.012;2024-03-08T00:55:25;54.72;;;32.78;;
19776;SDS011;10047;42.490;26.012;2024-03-08T00:57:52;50.15;;;32.70;;
19776;SDS011;10047;42.490;26.012;2024-03-08T01:00:18;56.95;;;33.40;;
19776;SDS011;10047;42.490;26.012;2024-03-08T01:02:46;51.90;;;32.28;;
19776;SDS011;10047;42.490;26.012;2024-03-08T01:05:11;54.85;;;32.65;;
19776;SDS011;10047;42.490;26.012;2024-03-08T01:07:38;54.00;;;32.47;;
19776;SDS011;10047;42.490;26.012;2024-03-08T01:10:04;53.30;;;33.10;;
19776;SDS011;10047;42.490;26.012;2024-03-08T01:12:34;52.45;;;32.40;;
19776;SDS011;10047;42.490;26.012;2024-03-08T01:15:00;53.17;;;31.70;;
19776;SDS011;10047;42.490;26.012;2024-03-08T01:17:25;53.75;;;32.53;;
19776;SDS011;10047;42.490;26.012;2024-03-08T01:19:51;49.70;;;31.73;;
19776;SDS011;10047;42.490;26.012;2024-03-08T01:22:18;49.13;;;31.17;;
19776;SDS011;10047;42.490;26.012;2024-03-08T01:24:44;48.88;;;31.65;;
19776;SDS011;10047;42.490;26.012;2024-03-08T01:27:09;51.47;;;31.83;;
19776;SDS011;10047;42.490;26.012;2024-03-08T01:29:34;49.75;;;32.10;;
19776;SDS011;10047;42.490;26.012;2024-03-08T01:32:00;53.55;;;31.35;;
19776;SDS011;10047;42.490;26.012;2024-03-08T01:34:26;50.28;;;31.75;;
19776;SDS011;10047;42.490;26.012;2024-03-08T01:36:53;47.65;;;30.27;;
19776;SDS011;10047;42.490;26.012;2024-03-08T01:39:21;44.10;;;30.13;;
19776;SDS011;10047;42.490;26.012;2024-03-08T01:41:47;45.35;;;30.20;;
19776;SDS011;10047;42.490;26.012;2024-03-08T01:44:12;48.03;;;30.38;;
19776;SDS011;10047;42.490;26.012;2024-03-08T01:46:43;48.00;;;29.33;;
19776;SDS011;10047;42.490;26.012;2024-03-08T01:49:10;43.95;;;28.67;;
19776;SDS011;10047;42.490;26.012;2024-03-08T01:51:37;44.13;;;28.85;;
19776;SDS011;10047;42.490;26.012;2024-03-08T01:54:05;41.45;;;28.23;;
19776;SDS011;10047;42.490;26.012;2024-03-08T01:56:31;41.58;;;28.50;;
19776;SDS011;10047;42.490;26.012;2024-03-08T01:58:57;42.17;;;28.33;;
19776;SDS011;10047;42.490;26.012;2024-03-08T02:01:24;40.90;;;28.33;;
19776;SDS011;10047;42.490;26.012;2024-03-08T02:03:50;40.53;;;27.80;;
19776;SDS011;10047;42.490;26.012;2024-03-08T02:06:16;40.75;;;28.02;;
19776;SDS011;10047;42.490;26.012;2024-03-08T02:08:45;40.55;;;27.60;;
19776;SDS011;10047;42.490;26.012;2024-03-08T02:11:11;44.88;;;27.98;;
19776;SDS011;10047;42.490;26.012;2024-03-08T02:13:37;42.22;;;28.40;;
19776;SDS011;10047;42.490;26.012;2024-03-08T02:16:02;41.03;;;27.45;;
19776;SDS011;10047;42.490;26.012;2024-03-08T02:18:29;43.60;;;27.65;;
19776;SDS011;10047;42.490;26.012;2024-03-08T02:20:56;42.75;;;27.88;;
19776;SDS011;10047;42.490;26.012;2024-03-08T02:23:23;38.53;;;26.92;;
19776;SDS011;10047;42.490;26.012;2024-03-08T02:25:50;41.95;;;27.42;;
19776;SDS011;10047;42.490;26.012;2024-03-08T02:28:16;41.80;;;28.13;;
19776;SDS011;10047;42.490;26.012;2024-03-08T02:30:43;38.58;;;26.52;;
19776;SDS011;10047;42.490;26.012;2024-03-08T02:33:09;41.60;;;27.38;;
19776;SDS011;10047;42.490;26.012;2024-03-08T02:35:35;42.85;;;28.33;;
19776;SDS011;10047;42.490;26.012;2024-03-08T02:38:01;39.25;;;27.25;;
19776;SDS011;10047;42.490;26.012;2024-03-08T02:40:28;38.55;;;26.67;;
19776;SDS011;10047;42.490;26.012;2024-03-08T02:42:54;39.35;;;27.10;;
19776;SDS011;10047;42.490;26.012;2024-03-08T02:45:20;43.10;;;27.40;;
19776;SDS011;10047;42.490;26.012;2024-03-08T02:47:45;40.10;;;26.83;;
19776;SDS011;10047;42.490;26.012;2024-03-08T02:50:11;39.53;;;26.80;;
19776;SDS011;10047;42.490;26.012;2024-03-08T02:52:37;39.88;;;27.73;;
19776;SDS011;10047;42.490;26.012;2024-03-08T02:55:02;38.78;;;26.45;;
19776;SDS011;10047;42.490;26.012;2024-03-08T02:57:31;42.40;;;26.33;;
19776;SDS011;10047;42.490;26.012;2024-03-08T02:59:57;38.58;;;26.27;;
19776;SDS011;10047;42.490;26.012;2024-03-08T03:02:24;40.15;;;26.25;;
19776;SDS011;10047;42.490;26.012;2024-03-08T03:04:50;41.05;;;26.90;;
19776;SDS011;10047;42.490;26.012;2024-03-08T03:07:15;40.50;;;26.27;;
19776;SDS011;10047;42.490;26.012;2024-03-08T03:09:41;35.92;;;25.35;;
19776;SDS011;10047;42.490;26.012;2024-03-08T03:12:07;39.67;;;26.35;;
19776;SDS011;10047;42.490;26.012;2024-03-08T03:14:35;38.33;;;27.55;;
19776;SDS011;10047;42.490;26.012;2024-03-08T03:17:03;37.42;;;26.92;;
19776;SDS011;10047;42.490;26.012;2024-03-08T03:19:29;34.92;;;25.52;;
19776;SDS011;10047;42.490;26.012;2024-03-08T03:21:55;37.97;;;25.65;;
19776;SDS011;10047;42.490;26.012;2024-03-08T03:24:20;36.78;;;26.73;;
19776;SDS011;10047;42.490;26.012;2024-03-08T03:26:46;44.10;;;27.30;;
19776;SDS011;10047;42.490;26.012;2024-03-08T03:29:13;37.00;;;26.90;;
19776;SDS011;10047;42.490;26.012;2024-03-08T03:31:40;39.08;;;26.60;;
19776;SDS011;10047;42.490;26.012;2024-03-08T03:34:06;42.45;;;28.98;;
19776;SDS011;10047;42.490;26.012;2024-03-08T03:36:33;40.13;;;28.33;;
19776;SDS011;10047;42.490;26.012;2024-03-08T03:39:02;41.03;;;27.35;;
19776;SDS011;10047;42.490;26.012;2024-03-08T03:41:40;43.03;;;28.05;;
19776;SDS011;10047;42.490;26.012;2024-03-08T03:44:07;41.30;;;28.33;;
19776;SDS011;10047;42.490;26.012;2024-03-08T03:46:33;39.30;;;27.38;;
19776;SDS011;10047;42.490;26.012;2024-03-08T03:48:59;40.50;;;26.83;;
19776;SDS011;10047;42.490;26.012;2024-03-08T03:51:24;36.63;;;26.65;;
19776;SDS011;10047;42.490;26.012;2024-03-08T03:53:50;39.03;;;26.73;;
19776;SDS011;10047;42.490;26.012;2024-03-08T03:56:16;41.22;;;27.17;;
19776;SDS011;10047;42.490;26.012;2024-03-08T03:58:42;38.72;;;26.98;;
19776;SDS011;10047;42.490;26.012;2024-03-08T04:01:07;41.45;;;27.55;;
19776;SDS011;10047;42.490;26.012;2024-03-08T04:03:33;39.38;;;26.85;;
19776;SDS011;10047;42.490;26.012;2024-03-08T04:05:58;38.25;;;26.42;;
19776;SDS011;10047;42.490;26.012;2024-03-08T04:08:24;41.60;;;26.90;;
19776;SDS011;10047;42.490;26.012;2024-03-08T04:10:50;38.88;;;26.70;;
19776;SDS011;10047;42.490;26.012;2024-03-08T04:13:16;46.80;;;29.88;;
19776;SDS011;10047;42.490;26.012;2024-03-08T04:15:41;46.22;;;30.85;;
19776;SDS011;10047;42.490;26.012;2024-03-08T04:18:09;42.15;;;27.40;;
19776;SDS011;10047;42.490;26.012;2024-03-08T04:20:34;41.00;;;27.63;;
19776;SDS011;10047;42.490;26.012;2024-03-08T04:23:00;40.35;;;27.08;;
19776;SDS011;10047;42.490;26.012;2024-03-08T04:25:27;46.35;;;30.67;;
19776;SDS011;10047;42.490;26.012;2024-03-08T04:27:52;37.97;;;27.27;;
19776;SDS011;10047;42.490;26.012;2024-03-08T04:30:17;42.45;;;27.83;;
19776;SDS011;10047;42.490;26.012;2024-03-08T04:32:49;40.40;;;27.42;;
19776;SDS011;10047;42.490;26.012;2024-03-08T04:35:15;40.50;;;26.23;;
19776;SDS011;10047;42.490;26.012;2024-03-08T04:37:40;40.53;;;26.90;;
19776;SDS011;10047;42.490;26.012;2024-03-08T04:40:06;40.05;;;27.05;;
19776;SDS011;10047;42.490;26.012;2024-03-08T04:42:32;43.30;;;28.67;;
19776;SDS011;10047;42.490;26.012;2024-03-08T04:44:58;40.72;;;27.40;;
19776;SDS011;10047;42.490;26.012;2024-03-08T04:47:24;42.72;;;27.15;;
19776;SDS011;10047;42.490;26.012;2024-03-08T04:49:50;46.13;;;29.17;;
19776;SDS011;10047;42.490;26.012;2024-03-08T04:52:15;38.80;;;28.15;;
19776;SDS011;10047;42.490;26.012;2024-03-08T04:54:41;38.42;;;28.10;;
19776;SDS011;10047;42.490;26.012;2024-03-08T04:57:07;37.35;;;27.13;;
19776;SDS011;10047;42.490;26.012;2024-03-08T04:59:32;42.60;;;28.38;;
19776;SDS011;10047;42.490;26.012;2024-03-08T05:01:58;40.15;;;28.35;;
19776;SDS011;10047;42.490;26.012;2024-03-08T05:04:23;38.33;;;27.13;;
19776;SDS011;10047;42.490;26.012;2024-03-08T05:06:49;40.17;;;27.30;;
19776;SDS011;10047;42.490;26.012;2024-03-08T05:09:14;37.05;;;26.60;;
19776;SDS011;10047;42.490;26.012;2024-03-08T05:11:41;37.65;;;27.23;;
19776;SDS011;10047;42.490;26.012;2024-03-08T05:14:08;37.67;;;26.83;;
19776;SDS011;10047;42.490;26.012;2024-03-08T05:16:34;37.88;;;27.45;;
19776;SDS011;10047;42.490;26.012;2024-03-08T05:19:00;39.85;;;27.38;;
19776;SDS011;10047;42.490;26.012;2024-03-08T05:21:26;35.88;;;25.90;;
19776;SDS011;10047;42.490;26.012;2024-03-08T05:23:52;38.65;;;27.10;;
19776;SDS011;10047;42.490;26.012;2024-03-08T05:26:17;40.17;;;27.70;;
19776;SDS011;10047;42.490;26.012;2024-03-08T05:28:42;39.67;;;26.40;;
19776;SDS011;10047;42.490;26.012;2024-03-08T05:31:08;43.15;;;30.00;;
19776;SDS011;10047;42.490;26.012;2024-03-08T05:33:33;43.63;;;30.13;;
19776;SDS011;10047;42.490;26.012;2024-03-08T05:36:02;45.08;;;30.77;;
19776;SDS011;10047;42.490;26.012;2024-03-08T05:38:28;49.15;;;32.42;;
19776;SDS011;10047;42.490;26.012;2024-03-08T05:40:54;50.85;;;34.55;;
19776;SDS011;10047;42.490;26.012;2024-03-08T05:43:19;62.63;;;39.33;;
19776;SDS011;10047;42.490;26.012;2024-03-08T05:45:45;57.97;;;36.55;;
19776;SDS011;10047;42.490;26.012;2024-03-08T05:48:11;57.40;;;37.63;;
19776;SDS011;10047;42.490;26.012;2024-03-08T05:50:39;47.55;;;32.47;;
19776;SDS011;10047;42.490;26.012;2024-03-08T05:53:04;49.97;;;34.08;;
19776;SDS011;10047;42.490;26.012;2024-03-08T05:55:32;51.88;;;35.38;;
19776;SDS011;10047;42.490;26.012;2024-03-08T05:58:00;49.63;;;36.25;;
19776;SDS011;10047;42.490;26.012;2024-03-08T06:00:26;48.08;;;34.80;;
19776;SDS011;10047;42.490;26.012;2024-03-08T06:02:52;47.90;;;35.85;;
19776;SDS011;10047;42.490;26.012;2024-03-08T06:05:17;45.83;;;32.60;;
19776;SDS011;10047;42.490;26.012;2024-03-08T06:07:43;48.63;;;34.88;;
19776;SDS011;10047;42.490;26.012;2024-03-08T06:10:09;40.67;;;29.38;;
19776;SDS011;10047;42.490;26.012;2024-03-08T06:12:35;37.53;;;26.95;;
19776;SDS011;10047;42.490;26.012;2024-03-08T06:15:05;37.83;;;26.50;;
19776;SDS011;10047;42.490;26.012;2024-03-08T06:17:31;39.08;;;27.52;;
19776;SDS011;10047;42.490;26.012;2024-03-08T06:19:57;40.70;;;28.30;;
19776;SDS011;10047;42.490;26.012;2024-03-08T06:22:22;42.17;;;28.63;;
19776;SDS011;10047;42.490;26.012;2024-03-08T06:24:48;42.60;;;28.88;;
19776;SDS011;10047;42.490;26.012;2024-03-08T06:27:15;37.90;;;27.00;;
19776;SDS011;10047;42.490;26.012;2024-03-08T06:29:40;42.70;;;29.73;;
19776;SDS011;10047;42.490;26.012;2024-03-08T06:32:06;47.83;;;32.78;;
19776;SDS011;10047;42.490;26.012;2024-03-08T06:34:34;46.90;;;33.63;;
19776;SDS011;10047;42.490;26.012;2024-03-08T06:37:00;42.35;;;31.05;;
19776;SDS011;10047;42.490;26.012;2024-03-08T06:39:26;50.97;;;34.83;;
19776;SDS011;10047;42.490;26.012;2024-03-08T06:41:53;60.28;;;39.40;;
19776;SDS011;10047;42.490;26.012;2024-03-08T06:44:19;56.55;;;38.92;;
19776;SDS011;10047;42.490;26.012;2024-03-08T06:46:46;54.80;;;38.15;;
19776;SDS011;10047;42.490;26.012;2024-03-08T06:49:13;45.10;;;30.95;;
19776;SDS011;10047;42.490;26.012;2024-03-08T06:51:38;42.25;;;30.67;;
19776;SDS011;10047;42.490;26.012;2024-03-08T06:54:06;44.10;;;31.50;;
19776;SDS011;10047;42.490;26.012;2024-03-08T06:56:33;49.20;;;33.00;;
19776;SDS011;10047;42.490;26.012;2024-03-08T06:59:02;47.25;;;31.27;;
19776;SDS011;10047;42.490;26.012;2024-03-08T07:01:28;41.60;;;27.73;;
19776;SDS011;10047;42.490;26.012;2024-03-08T07:03:57;59.15;;;38.45;;
19776;SDS011;10047;42.490;26.012;2024-03-08T07:06:23;54.05;;;33.28;;
19776;SDS011;10047;42.490;26.012;2024-03-08T07:08:48;51.80;;;32.22;;
19776;SDS011;10047;42.490;26.012;2024-03-08T07:11:14;47.15;;;29.52;;
19776;SDS011;10047;42.490;26.012;2024-03-08T07:13:44;41.92;;;27.48;;
19776;SDS011;10047;42.490;26.012;2024-03-08T07:16:10;37.75;;;25.08;;
19776;SDS011;10047;42.490;26.012;2024-03-08T07:18:37;36.78;;;24.92;;
19776;SDS011;10047;42.490;26.012;2024-03-08T07:21:05;32.22;;;24.63;;
19776;SDS011;10047;42.490;26.012;2024-03-08T07:23:30;33.72;;;25.15;;
19776;SDS011;10047;42.490;26.012;2024-03-08T07:26:14;40.57;;;27.57;;
19776;SDS011;10047;42.490;26.012;2024-03-08T07:28:40;51.40;;;31.73;;
19776;SDS011;10047;42.490;26.012;2024-03-08T07:31:06;56.10;;;36.55;;
19776;SDS011;10047;42.490;26.012;2024-03-08T07:33:37;44.92;;;32.08;;
19776;SDS011;10047;42.490;26.012;2024-03-08T07:36:03;59.85;;;42.42;;
19776;SDS011;10047;42.490;26.012;2024-03-08T07:38:29;50.25;;;34.85;;
19776;SDS011;10047;42.490;26.012;2024-03-08T07:40:55;43.50;;;32.65;;
19776;SDS011;10047;42.490;26.012;2024-03-08T07:43:22;40.08;;;28.83;;
19776;SDS011;10047;42.490;26.012;2024-03-08T07:45:48;50.03;;;36.25;;
19776;SDS011;10047;42.490;26.012;2024-03-08T07:48:13;42.20;;;30.80;;
19776;SDS011;10047;42.490;26.012;2024-03-08T07:50:39;57.22;;;38.00;;
19776;SDS011;10047;42.490;26.012;2024-03-08T07:53:05;84.00;;;51.80;;
19776;SDS011;10047;42.490;26.012;2024-03-08T07:55:34;63.85;;;35.47;;
19776;SDS011;10047;42.490;26.012;2024-03-08T07:58:00;60.58;;;32.55;;
19776;SDS011;10047;42.490;26.012;2024-03-08T08:00:29;61.65;;;37.67;;
19776;SDS011;10047;42.490;26.012;2024-03-08T08:02:56;41.90;;;26.33;;
19776;SDS011;10047;42.490;26.012;2024-03-08T08:05:22;49.33;;;29.65;;
19776;SDS011;10047;42.490;26.012;2024-03-08T08:07:47;47.85;;;31.98;;
19776;SDS011;10047;42.490;26.012;2024-03-08T08:10:13;60.55;;;35.30;;
19776;SDS011;10047;42.490;26.012;2024-03-08T08:12:43;57.83;;;36.05;;
19776;SDS011;10047;42.490;26.012;2024-03-08T08:15:09;42.38;;;29.83;;
19776;SDS011;10047;42.490;26.012;2024-03-08T08:17:35;42.88;;;28.67;;
19776;SDS011;10047;42.490;26.012;2024-03-08T08:20:00;51.45;;;31.27;;
19776;SDS011;10047;42.490;26.012;2024-03-08T08:22:25;47.45;;;32.13;;
19776;SDS011;10047;42.490;26.012;2024-03-08T08:24:51;47.17;;;29.58;;
19776;SDS011;10047;42.490;26.012;2024-03-08T08:27:17;40.22;;;25.85;;
19776;SDS011;10047;42.490;26.012;2024-03-08T08:29:42;39.95;;;26.67;;
19776;SDS011;10047;42.490;26.012;2024-03-08T08:32:08;40.10;;;26.83;;
19776;SDS011;10047;42.490;26.012;2024-03-08T08:34:34;34.78;;;24.05;;
19776;SDS011;10047;42.490;26.012;2024-03-08T08:36:59;44.35;;;27.67;;
19776;SDS011;10047;42.490;26.012;2024-03-08T08:39:25;40.60;;;27.48;;
19776;SDS011;10047;42.490;26.012;2024-03-08T08:41:51;36.38;;;24.17;;
19776;SDS011;10047;42.490;26.012;2024-03-08T08:44:17;42.00;;;25.98;;
19776;SDS011;10047;42.490;26.012;2024-03-08T08:46:43;41.60;;;28.67;;
19776;SDS011;10047;42.490;26.012;2024-03-08T08:49:08;36.00;;;24.75;;
19776;SDS011;10047;42.490;26.012;2024-03-08T08:51:36;41.35;;;27.17;;
19776;SDS011;10047;42.490;26.012;2024-03-08T08:54:02;33.80;;;22.38;;
19776;SDS011;10047;42.490;26.012;2024-03-08T08:56:28;30.58;;;21.67;;
19776;SDS011;10047;42.490;26.012;2024-03-08T08:58:54;35.45;;;21.80;;
19776;SDS011;10047;42.490;26.012;2024-03-08T09:01:20;43.08;;;27.98;;
19776;SDS011;10047;42.490;26.012;2024-03-08T09:03:46;34.67;;;25.63;;
19776;SDS011;10047;42.490;26.012;2024-03-08T09:06:12;39.63;;;26.77;;
19776;SDS011;10047;42.490;26.012;2024-03-08T09:08:41;37.90;;;26.05;;
19776;SDS011;10047;42.490;26.012;2024-03-08T09:11:07;30.48;;;20.75;;
19776;SDS011;10047;42.490;26.012;2024-03-08T09:13:32;31.20;;;21.38;;
19776;SDS011;10047;42.490;26.012;2024-03-08T09:16:01;42.65;;;27.25;;
19776;SDS011;10047;42.490;26.012;2024-03-08T09:18:28;39.05;;;27.15;;
19776;SDS011;10047;42.490;26.012;2024-03-08T09:20:54;31.42;;;22.63;;
19776;SDS011;10047;42.490;26.012;2024-03-08T09:23:20;28.17;;;20.00;;
19776;SDS011;10047;42.490;26.012;2024-03-08T09:25:45;29.90;;;21.52;;
19776;SDS011;10047;42.490;26.012;2024-03-08T09:28:11;33.75;;;23.92;;
19776;SDS011;10047;42.490;26.012;2024-03-08T09:30:37;33.08;;;23.05;;
19776;SDS011;10047;42.490;26.012;2024-03-08T09:33:03;27.27;;;20.33;;
19776;SDS011;10047;42.490;26.012;2024-03-08T09:35:30;31.73;;;22.25;;
19776;SDS011;10047;42.490;26.012;2024-03-08T09:37:56;35.28;;;23.40;;
19776;SDS011;10047;42.490;26.012;2024-03-08T09:40:21;27.58;;;21.90;;
19776;SDS011;10047;42.490;26.012;2024-03-08T09:42:49;28.23;;;20.85;;
19776;SDS011;10047;42.490;26.012;2024-03-08T09:45:15;34.95;;;23.50;;
19776;SDS011;10047;42.490;26.012;2024-03-08T09:47:42;32.30;;;23.90;;
19776;SDS011;10047;42.490;26.012;2024-03-08T09:50:09;38.72;;;27.50;;
19776;SDS011;10047;42.490;26.012;2024-03-08T09:52:38;36.03;;;25.60;;
19776;SDS011;10047;42.490;26.012;2024-03-08T09:55:07;34.13;;;24.52;;
19776;SDS011;10047;42.490;26.012;2024-03-08T09:57:36;38.78;;;26.10;;
19776;SDS011;10047;42.490;26.012;2024-03-08T10:00:03;45.78;;;31.42;;
19776;SDS011;10047;42.490;26.012;2024-03-08T10:02:48;42.85;;;28.67;;
19776;SDS011;10047;42.490;26.012;2024-03-08T10:05:17;43.50;;;29.80;;
19776;SDS011;10047;42.490;26.012;2024-03-08T10:07:43;32.28;;;22.83;;
19776;SDS011;10047;42.490;26.012;2024-03-08T10:10:08;26.02;;;19.35;;
19776;SDS011;10047;42.490;26.012;2024-03-08T10:12:37;25.92;;;18.60;;
19776;SDS011;10047;42.490;26.012;2024-03-08T10:15:07;27.48;;;19.70;;
19776;SDS011;10047;42.490;26.012;2024-03-08T10:17:34;27.50;;;19.13;;
19776;SDS011;10047;42.490;26.012;2024-03-08T10:20:00;24.65;;;18.02;;
19776;SDS011;10047;42.490;26.012;2024-03-08T10:22:26;25.73;;;18.80;;
19776;SDS011;10047;42.490;26.012;2024-03-08T10:24:51;25.23;;;17.83;;
19776;SDS011;10047;42.490;26.012;2024-03-08T10:27:17;27.08;;;19.85;;
19776;SDS011;10047;42.490;26.012;2024-03-08T10:29:45;27.33;;;20.30;;
19776;SDS011;10047;42.490;26.012;2024-03-08T10:32:12;27.02;;;19.17;;
19776;SDS011;10047;42.490;26.012;2024-03-08T10:34:38;25.55;;;18.15;;
19776;SDS011;10047;42.490;26.012;2024-03-08T10:37:04;24.30;;;17.48;;
19776;SDS011;10047;42.490;26.012;2024-03-08T10:39:37;28.05;;;18.40;;
19776;SDS011;10047;42.490;26.012;2024-03-08T10:42:03;23.13;;;16.60;;
19776;SDS011;10047;42.490;26.012;2024-03-08T10:47:02;19.20;;;15.52;;
19776;SDS011;10047;42.490;26.012;2024-03-08T10:49:38;20.35;;;14.43;;
19776;SDS011;10047;42.490;26.012;2024-03-08T10:52:09;21.15;;;15.18;;
19776;SDS011;10047;42.490;26.012;2024-03-08T10:54:37;19.00;;;15.65;;
19776;SDS011;10047;42.490;26.012;2024-03-08T10:57:06;21.25;;;16.08;;
19776;SDS011;10047;42.490;26.012;2024-03-08T10:59:33;25.52;;;16.65;;
19776;SDS011;10047;42.490;26.012;2024-03-08T11:02:00;20.70;;;15.05;;
19776;SDS011;10047;42.490;26.012;2024-03-08T11:04:26;18.20;;;13.10;;
19776;SDS011;10047;42.490;26.012;2024-03-08T11:06:54;16.80;;;12.98;;
19776;SDS011;10047;42.490;26.012;2024-03-08T11:09:31;15.85;;;12.77;;
19776;SDS011;10047;42.490;26.012;2024-03-08T11:15:00;17.33;;;12.73;;
19776;SDS011;10047;42.490;26.012;2024-03-08T11:20:04;20.63;;;15.00;;
19776;SDS011;10047;42.490;26.012;2024-03-08T11:22:40;19.00;;;14.80;;
19776;SDS011;10047;42.490;26.012;2024-03-08T11:28:12;18.20;;;13.57;;
19776;SDS011;10047;42.490;26.012;2024-03-08T11:30:41;18.08;;;14.27;;
19776;SDS011;10047;42.490;26.012;2024-03-08T11:33:24;18.23;;;13.15;;
19776;SDS011;10047;42.490;26.012;2024-03-08T11:35:51;18.85;;;14.10;;
19776;SDS011;10047;42.490;26.012;2024-03-08T11:38:17;19.17;;;14.70;;
19776;SDS011;10047;42.490;26.012;2024-03-08T11:40:45;19.73;;;14.98;;
19776;SDS011;10047;42.490;26.012;2024-03-08T11:43:15;17.20;;;13.27;;
19776;SDS011;10047;42.490;26.012;2024-03-08T11:45:41;18.33;;;14.45;;
19776;SDS011;10047;42.490;26.012;2024-03-08T11:48:06;14.85;;;10.60;;
19776;SDS011;10047;42.490;26.012;2024-03-08T11:50:32;14.82;;;10.68;;
19776;SDS011;10047;42.490;26.012;2024-03-08T11:53:04;14.93;;;11.77;;
19776;SDS011;10047;42.490;26.012;2024-03-08T11:55:33;11.38;;;8.73;;
19776;SDS011;10047;42.490;26.012;2024-03-08T11:58:04;10.02;;;7.78;;
19776;SDS011;10047;42.490;26.012;2024-03-08T12:00:30;9.90;;;7.75;;
19776;SDS011;10047;42.490;26.012;2024-03-08T12:03:06;11.10;;;8.13;;
19776;SDS011;10047;42.490;26.012;2024-03-08T12:05:37;13.20;;;10.30;;
19776;SDS011;10047;42.490;26.012;2024-03-08T12:08:03;14.93;;;11.15;;
19776;SDS011;10047;42.490;26.012;2024-03-08T12:10:32;15.43;;;10.65;;
19776;SDS011;10047;42.490;26.012;2024-03-08T12:12:58;12.25;;;10.10;;
19776;SDS011;10047;42.490;26.012;2024-03-08T12:15:24;11.43;;;9.50;;
19776;SDS011;10047;42.490;26.012;2024-03-08T12:17:51;12.50;;;9.38;;
19776;SDS011;10047;42.490;26.012;2024-03-08T12:20:24;11.82;;;8.70;;
19776;SDS011;10047;42.490;26.012;2024-03-08T12:22:51;10.07;;;7.55;;
19776;SDS011;10047;42.490;26.012;2024-03-08T12:25:26;9.98;;;7.63;;
19776;SDS011;10047;42.490;26.012;2024-03-08T12:28:12;10.10;;;7.10;;
19776;SDS011;10047;42.490;26.012;2024-03-08T12:30:49;10.23;;;7.93;;
19776;SDS011;10047;42.490;26.012;2024-03-08T12:33:19;9.32;;;7.78;;
19776;SDS011;10047;42.490;26.012;2024-03-08T12:35:51;8.65;;;6.82;;
19776;SDS011;10047;42.490;26.012;2024-03-08T12:38:23;10.05;;;7.97;;
19776;SDS011;10047;42.490;26.012;2024-03-08T12:40:50;6.57;;;4.97;;
19776;SDS011;10047;42.490;26.012;2024-03-08T12:43:16;10.65;;;8.13;;
19776;SDS011;10047;42.490;26.012;2024-03-08T12:45:41;9.05;;;6.53;;
19776;SDS011;10047;42.490;26.012;2024-03-08T12:48:12;8.80;;;6.72;;
19776;SDS011;10047;42.490;26.012;2024-03-08T12:50:40;10.80;;;7.40;;
19776;SDS011;10047;42.490;26.012;2024-03-08T12:53:05;6.78;;;4.10;;
19776;SDS011;10047;42.490;26.012;2024-03-08T12:55:31;5.40;;;3.88;;
19776;SDS011;10047;42.490;26.012;2024-03-08T12:57:57;4.53;;;3.45;;
19776;SDS011;10047;42.490;26.012;2024-03-08T13:00:24;2.42;;;2.13;;
19776;SDS011;10047;42.490;26.012;2024-03-08T13:02:50;4.10;;;3.70;;
19776;SDS011;10047;42.490;26.012;2024-03-08T13:05:16;4.05;;;3.65;;
19776;SDS011;10047;42.490;26.012;2024-03-08T13:07:42;5.97;;;4.78;;
19776;SDS011;10047;42.490;26.012;2024-03-08T13:10:14;5.60;;;4.60;;
19776;SDS011;10047;42.490;26.012;2024-03-08T13:12:41;8.10;;;4.85;;
19776;SDS011;10047;42.490;26.012;2024-03-08T13:15:10;4.68;;;3.78;;
19776;SDS011;10047;42.490;26.012;2024-03-08T13:17:48;6.47;;;5.20;;
19776;SDS011;10047;42.490;26.012;2024-03-08T13:20:13;8.00;;;4.38;;
19776;SDS011;10047;42.490;26.012;2024-03-08T13:22:44;6.68;;;3.97;;
19776;SDS011;10047;42.490;26.012;2024-03-08T13:25:11;5.80;;;3.67;;
19776;SDS011;10047;42.490;26.012;2024-03-08T13:27:39;5.80;;;4.20;;
19776;SDS011;10047;42.490;26.012;2024-03-08T13:30:08;6.55;;;5.10;;
19776;SDS011;10047;42.490;26.012;2024-03-08T13:32:42;6.13;;;4.65;;
19776;SDS011;10047;42.490;26.012;2024-03-08T13:35:08;5.25;;;4.57;;
19776;SDS011;10047;42.490;26.012;2024-03-08T13:37:41;6.38;;;4.90;;
19776;SDS011;10047;42.490;26.012;2024-03-08T13:40:07;7.47;;;5.20;;
19776;SDS011;10047;42.490;26.012;2024-03-08T13:42:38;7.32;;;6.25;;
19776;SDS011;10047;42.490;26.012;2024-03-08T13:45:05;11.40;;;8.50;;
19776;SDS011;10047;42.490;26.012;2024-03-08T13:47:34;7.47;;;5.55;;
19776;SDS011;10047;42.490;26.012;2024-03-08T13:49:59;7.03;;;6.20;;
19776;SDS011;10047;42.490;26.012;2024-03-08T13:52:26;6.55;;;5.43;;
19776;SDS011;10047;42.490;26.012;2024-03-08T13:54:54;4.88;;;4.35;;
19776;SDS011;10047;42.490;26.012;2024-03-08T13:57:20;15.30;;;10.48;;
19776;SDS011;10047;42.490;26.012;2024-03-08T13:59:47;9.35;;;7.03;;
19776;SDS011;10047;42.490;26.012;2024-03-08T14:02:14;10.20;;;7.40;;
19776;SDS011;10047;42.490;26.012;2024-03-08T14:04:39;5.63;;;4.20;;
19776;SDS011;10047;42.490;26.012;2024-03-08T14:07:06;8.50;;;6.57;;
19776;SDS011;10047;42.490;26.012;2024-03-08T14:09:33;9.20;;;7.03;;
19776;SDS011;10047;42.490;26.012;2024-03-08T14:12:02;8.68;;;6.57;;
19776;SDS011;10047;42.490;26.012;2024-03-08T14:14:32;13.13;;;8.63;;
19776;SDS011;10047;42.490;26.012;2024-03-08T14:17:00;10.80;;;7.70;;
19776;SDS011;10047;42.490;26.012;2024-03-08T14:19:27;11.20;;;9.10;;
19776;SDS011;10047;42.490;26.012;2024-03-08T14:22:01;13.90;;;11.57;;